Current Conditions
Overcast
Conditions



Pressure
29.84 (inHG) - 1010.52 (mb)
Visibility

9.9 (mimiles) - 16.0 (km)
   Temperature
43  °F
6°C
36  °F
Dewpoint
76  %
 Humidity
   Wind Speed
16  mph
14  kts
26  km/h
7.2  m/s
   Wind Direction
 290°
West North
West
   Airport Data
KPDK
Location DeKalb Peachtree Airport 20 mi (32.18 km)
Metar :KPDK 301553Z 29014KT 10SM OVC020 06/02 A2984 RMK AO2 PK WND 29031/1506 SLP109 T00560017
Mon 30th November 11:53 am
   Raw Metar Info
Raw METAR is the most common format in the world for the transmission of observational weather data. It is highly standardized through the International Civil Aviation Organization (ICAO), which allows it to be understood throughout most of the world.
   API Info
Data Provided by
https://www.checkwx.com/weather/KPDK
   © Info
CSS/SVG/PHP scripts were developed by weather34.com for use in the weather34 template © 2015-2020

Guide Info provided by Metar-Wikipedia